Terminal Aerodrome Forecast
Issued by NWS

Home | Current Version | Previous Version | Text Only | Print | Product List | Glossary On
Versions: 1 2 3 4 5 6 7 8 9 10 11 12 13 14
408
FTUS45 KVEF 270528
TAFHND
TAF
KHND 270528Z 2706/2806 19010KT P6SM FEW150 FEW250
     FM271700 24013G22KT P6SM SCT100
     FM272300 29015G25KT P6SM BKN100
     FM280200 32020G30KT P6SM SCT100=

USA.gov is the U.S. government's official web portal to all federal, state and local government web resources and services.